createdAt,value
2019-04-03T00:00:04.366Z,928.08
2019-04-03T00:00:17.799Z,928.04
2019-04-03T00:00:30.876Z,928.03
2019-04-03T00:00:45.002Z,928.06
2019-04-03T00:00:58.032Z,928.06
2019-04-03T00:01:11.858Z,928.05
2019-04-03T00:01:24.914Z,928.03
2019-04-03T00:01:38.924Z,928.03
2019-04-03T00:01:51.959Z,928.03
2019-04-03T00:02:05.722Z,928.04
2019-04-03T00:02:18.846Z,928.06
2019-04-03T00:02:32.702Z,928.07
2019-04-03T00:02:47.256Z,928.03
2019-04-03T00:02:59.777Z,928.06
2019-04-03T00:03:14.495Z,928.08
2019-04-03T00:03:27.648Z,928.05
2019-04-03T00:03:41.341Z,928.06
2019-04-03T00:03:54.636Z,928.06
2019-04-03T00:04:08.964Z,928.04
2019-04-03T00:04:21.990Z,928.08
2019-04-03T00:04:35.893Z,928.15
2019-04-03T00:04:48.977Z,928.16
2019-04-03T00:05:02.754Z,928.1
2019-04-03T00:05:17.488Z,928.11
2019-04-03T00:05:30.524Z,928.1
2019-04-03T00:05:45.262Z,928.08
2019-04-03T00:05:58.376Z,928.1
2019-04-03T00:06:13.168Z,928.14
2019-04-03T00:06:26.277Z,928.12
2019-04-03T00:06:42.082Z,928.14
2019-04-03T00:06:55.198Z,928.18
2019-04-03T00:07:09.955Z,928.12
2019-04-03T00:07:22.961Z,928.15
2019-04-03T00:07:37.164Z,928.14
2019-04-03T00:07:50.274Z,928.11
2019-04-03T00:08:05.933Z,928.15
2019-04-03T00:08:19.261Z,928.13
2019-04-03T00:08:32.322Z,928.13
2019-04-03T00:08:46.950Z,928.12
2019-04-03T00:09:00.098Z,928.16
2019-04-03T00:09:13.965Z,928.23
2019-04-03T00:09:27.199Z,928.15
2019-04-03T00:09:42.800Z,928.13
2019-04-03T00:09:55.784Z,928.14
2019-04-03T00:10:11.197Z,928.14
2019-04-03T00:10:24.157Z,928.17
2019-04-03T00:10:39.252Z,928.18
2019-04-03T00:10:52.484Z,928.17
2019-04-03T00:11:08.255Z,928.19
2019-04-03T00:11:21.906Z,928.14
2019-04-03T00:11:35.032Z,928.12
2019-04-03T00:11:50.461Z,928.16
2019-04-03T00:12:03.458Z,928.16
2019-04-03T00:12:17.996Z,928.18
2019-04-03T00:12:31.035Z,928.16
2019-04-03T00:12:45.251Z,928.18
2019-04-03T00:12:58.332Z,928.17
2019-04-03T00:13:12.762Z,928.15
2019-04-03T00:13:25.830Z,928.19
2019-04-03T00:13:41.217Z,928.19
2019-04-03T00:13:54.841Z,928.17
2019-04-03T00:14:07.841Z,928.21
2019-04-03T00:14:23.082Z,928.16
2019-04-03T00:14:36.019Z,928.19
2019-04-03T00:14:50.284Z,928.19
2019-04-03T00:15:03.296Z,928.16
2019-04-03T00:15:17.739Z,928.19
2019-04-03T00:15:30.843Z,928.2
2019-04-03T00:15:46.168Z,928.21
2019-04-03T00:15:59.236Z,928.18
2019-04-03T00:16:15.252Z,928.17
2019-04-03T00:16:28.688Z,928.16
2019-04-03T00:16:41.703Z,928.2
2019-04-03T00:16:56.271Z,928.17
2019-04-03T00:17:09.618Z,928.16
2019-04-03T00:17:25.260Z,928.17
2019-04-03T00:17:37.852Z,928.19
2019-04-03T00:17:53.137Z,928.14
2019-04-03T00:18:06.262Z,928.16
2019-04-03T00:18:20.751Z,928.18
2019-04-03T00:18:33.739Z,928.17
2019-04-03T00:18:48.969Z,928.17
2019-04-03T00:19:02.832Z,928.18
2019-04-03T00:19:18.408Z,928.23
2019-04-03T00:19:31.475Z,928.18
2019-04-03T00:19:45.725Z,928.2
2019-04-03T00:20:00.436Z,928.19
2019-04-03T00:20:13.422Z,928.18
2019-04-03T00:20:28.207Z,928.21
2019-04-03T00:20:40.999Z,928.23
2019-04-03T00:20:56.167Z,928.2
2019-04-03T00:21:09.418Z,928.24
2019-04-03T00:21:23.887Z,928.26
2019-04-03T00:21:36.961Z,928.22
2019-04-03T00:21:52.129Z,928.22
2019-04-03T00:22:05.174Z,928.2
2019-04-03T00:22:18.219Z,928.19
2019-04-03T00:22:32.335Z,928.21
2019-04-03T00:22:47.508Z,928.21
2019-04-03T00:23:02.532Z,928.22
2019-04-03T00:23:15.656Z,928.23
2019-04-03T00:23:29.876Z,928.19
2019-04-03T00:23:42.900Z,928.23
2019-04-03T00:23:57.066Z,928.19
2019-04-03T00:24:09.585Z,928.22
2019-04-03T00:24:24.001Z,928.24
2019-04-03T00:24:37.125Z,928.19
2019-04-03T00:24:50.620Z,928.19
2019-04-03T00:25:04.839Z,928.19
2019-04-03T00:25:18.169Z,928.22
2019-04-03T00:25:32.606Z,928.22
2019-04-03T00:25:45.609Z,928.22
2019-04-03T00:25:59.828Z,928.26
2019-04-03T00:26:12.742Z,928.28
2019-04-03T00:26:26.667Z,928.25
2019-04-03T00:26:40.974Z,928.24
2019-04-03T00:26:56.381Z,928.31
2019-04-03T00:27:09.429Z,928.28
2019-04-03T00:27:23.664Z,928.25
2019-04-03T00:27:36.884Z,928.26
2019-04-03T00:27:50.748Z,928.25
2019-04-03T00:28:05.453Z,928.21
2019-04-03T00:28:18.494Z,928.25
2019-04-03T00:28:32.879Z,928.25
2019-04-03T00:28:45.902Z,928.27
2019-04-03T00:28:59.744Z,928.22
2019-04-03T00:29:12.752Z,928.19
2019-04-03T00:29:26.920Z,928.21
2019-04-03T00:29:39.935Z,928.22
2019-04-03T00:29:53.676Z,928.23
2019-04-03T00:30:06.826Z,928.26
2019-04-03T00:30:20.481Z,928.22
2019-04-03T00:30:35.621Z,928.22
2019-04-03T00:30:48.585Z,928.21
2019-04-03T00:31:03.504Z,928.21
2019-04-03T00:31:16.614Z,928.23
2019-04-03T00:31:30.768Z,928.25
2019-04-03T00:31:43.879Z,928.24
2019-04-03T00:31:57.937Z,928.28
2019-04-03T00:32:10.635Z,928.24
2019-04-03T00:32:24.643Z,928.25
2019-04-03T00:32:37.979Z,928.25
2019-04-03T00:32:53.053Z,928.26
2019-04-03T00:33:07.047Z,928.22
2019-04-03T00:33:20.141Z,928.22
2019-04-03T00:33:34.098Z,928.22
2019-04-03T00:33:47.155Z,928.23
2019-04-03T00:34:01.142Z,928.22
2019-04-03T00:34:14.302Z,928.23
2019-04-03T00:34:30.230Z,928.2
2019-04-03T00:34:42.814Z,928.2
2019-04-03T00:34:57.899Z,928.2
2019-04-03T00:35:10.948Z,928.19
2019-04-03T00:35:24.933Z,928.24
2019-04-03T00:35:37.998Z,928.18
2019-04-03T00:35:51.651Z,928.21
2019-04-03T00:36:06.448Z,928.24
2019-04-03T00:36:19.441Z,928.21
2019-04-03T00:36:34.021Z,928.21
2019-04-03T00:36:47.047Z,928.19
2019-04-03T00:37:00.713Z,928.23
2019-04-03T00:37:13.249Z,928.2
2019-04-03T00:37:27.774Z,928.17
2019-04-03T00:37:40.897Z,928.23
2019-04-03T00:37:54.928Z,928.22
2019-04-03T00:38:08.022Z,928.21
2019-04-03T00:38:21.195Z,928.2
2019-04-03T00:38:35.672Z,928.22
2019-04-03T00:38:48.706Z,928.19
2019-04-03T00:39:04.161Z,928.21
2019-04-03T00:39:17.238Z,928.21
2019-04-03T00:39:31.978Z,928.25
2019-04-03T00:39:45.009Z,928.2
2019-04-03T00:39:58.731Z,928.23
2019-04-03T00:40:11.784Z,928.23
2019-04-03T00:40:25.968Z,928.19
2019-04-03T00:40:38.916Z,928.19
2019-04-03T00:40:52.567Z,928.18
2019-04-03T00:41:07.259Z,928.21
2019-04-03T00:41:20.200Z,928.24
2019-04-03T00:41:35.078Z,928.23
2019-04-03T00:41:48.178Z,928.21
2019-04-03T00:42:02.183Z,928.19
2019-04-03T00:42:15.233Z,928.21
2019-04-03T00:42:29.104Z,928.22
2019-04-03T00:42:42.150Z,928.24
2019-04-03T00:42:55.979Z,928.22
2019-04-03T00:43:09.040Z,928.22
2019-04-03T00:43:24.268Z,928.23
2019-04-03T00:43:37.424Z,928.2
2019-04-03T00:43:49.987Z,928.19
2019-04-03T00:44:04.845Z,928.19
2019-04-03T00:44:17.861Z,928.23
2019-04-03T00:44:31.770Z,928.22
2019-04-03T00:44:44.971Z,928.24
2019-04-03T00:44:58.804Z,928.22
2019-04-03T00:45:11.803Z,928.2
2019-04-03T00:45:25.740Z,928.19
2019-04-03T00:45:38.369Z,928.23
2019-04-03T00:45:54.006Z,928.24
2019-04-03T00:46:07.265Z,928.19
2019-04-03T00:46:20.255Z,928.21
2019-04-03T00:46:34.988Z,928.23
2019-04-03T00:46:48.279Z,928.23
2019-04-03T00:47:03.120Z,928.2
2019-04-03T00:47:16.131Z,928.22
2019-04-03T00:47:29.866Z,928.18
2019-04-03T00:47:42.867Z,928.15
2019-04-03T00:47:57.144Z,928.16
2019-04-03T00:48:10.387Z,928.16
2019-04-03T00:48:26.191Z,928.16
2019-04-03T00:48:39.428Z,928.15
2019-04-03T00:48:52.439Z,928.16
2019-04-03T00:49:07.406Z,928.17
2019-04-03T00:49:20.512Z,928.17
2019-04-03T00:49:35.914Z,928.16
2019-04-03T00:49:49.246Z,928.15
2019-04-03T00:50:03.929Z,928.14
2019-04-03T00:50:16.740Z,928.17
2019-04-03T00:50:31.039Z,928.17
2019-04-03T00:50:44.230Z,928.15
2019-04-03T00:50:58.619Z,928.13
2019-04-03T00:51:11.828Z,928.16
2019-04-03T00:51:26.945Z,928.15
2019-04-03T00:51:40.511Z,928.18
2019-04-03T00:51:53.716Z,928.18
2019-04-03T00:52:08.130Z,928.18
2019-04-03T00:52:21.117Z,928.15
2019-04-03T00:52:34.612Z,928.17
2019-04-03T00:52:47.967Z,928.19
2019-04-03T00:53:01.953Z,928.17
2019-04-03T00:53:14.958Z,928.15
2019-04-03T00:53:29.216Z,928.21
2019-04-03T00:53:42.238Z,928.17
2019-04-03T00:53:55.822Z,928.17
2019-04-03T00:54:10.453Z,928.17
2019-04-03T00:54:24.747Z,928.18
2019-04-03T00:54:41.370Z,928.16
2019-04-03T00:54:54.759Z,928.19
2019-04-03T00:55:09.353Z,928.15
2019-04-03T00:55:21.932Z,928.15
2019-04-03T00:55:37.220Z,928.17
2019-04-03T00:55:50.538Z,928.22
2019-04-03T00:56:06.227Z,928.18
2019-04-03T00:56:19.307Z,928.19
2019-04-03T00:56:33.879Z,928.19
2019-04-03T00:56:46.888Z,928.17
2019-04-03T00:57:00.669Z,928.19
2019-04-03T00:57:13.288Z,928.16
2019-04-03T00:57:27.978Z,928.15
2019-04-03T00:57:41.067Z,928.18
2019-04-03T00:57:54.600Z,928.16
2019-04-03T00:58:09.496Z,928.13
2019-04-03T00:58:22.532Z,928.18
2019-04-03T00:58:36.222Z,928.18
2019-04-03T00:58:49.443Z,928.18
2019-04-03T00:59:04.874Z,928.15
2019-04-03T00:59:17.870Z,928.15
2019-04-03T00:59:33.001Z,928.15
2019-04-03T00:59:46.251Z,928.18
2019-04-03T01:00:00.954Z,928.19
2019-04-03T01:00:14.151Z,928.16
2019-04-03T01:00:28.012Z,928.15
2019-04-03T01:00:41.111Z,928.15
2019-04-03T01:00:57.256Z,928.11
2019-04-03T01:01:10.300Z,928.17
2019-04-03T01:01:24.687Z,928.16
2019-04-03T01:01:39.624Z,928.2
2019-04-03T01:01:52.202Z,928.14
2019-04-03T01:02:06.595Z,928.13
2019-04-03T01:02:20.675Z,928.14
2019-04-03T01:02:35.693Z,928.15
2019-04-03T01:02:48.797Z,928.12
2019-04-03T01:03:03.062Z,928.07
2019-04-03T01:03:16.311Z,928.11
2019-04-03T01:03:29.770Z,928.1
2019-04-03T01:03:42.769Z,928.08
2019-04-03T01:03:56.780Z,928.1
2019-04-03T01:04:11.744Z,928.07
2019-04-03T01:04:24.719Z,928.08
2019-04-03T01:04:39.303Z,928.05
2019-04-03T01:04:52.235Z,928.09
2019-04-03T01:05:08.433Z,928.07
2019-04-03T01:05:21.711Z,928.05
2019-04-03T01:05:36.006Z,928.04
2019-04-03T01:05:48.990Z,928.03
2019-04-03T01:06:02.536Z,928.03
2019-04-03T01:06:15.907Z,928.03
2019-04-03T01:06:30.016Z,928.02
2019-04-03T01:06:43.309Z,928.02
2019-04-03T01:06:59.364Z,928.04
2019-04-03T01:07:12.442Z,928.03
2019-04-03T01:07:25.658Z,928.07
2019-04-03T01:07:39.781Z,928.02
2019-04-03T01:07:52.340Z,928.04
2019-04-03T01:08:06.969Z,928.02
2019-04-03T01:08:20.011Z,928.06
2019-04-03T01:08:33.377Z,928.06
2019-04-03T01:08:46.458Z,928.05
2019-04-03T01:09:00.871Z,928.02
2019-04-03T01:09:13.931Z,928.05
2019-04-03T01:09:29.017Z,928.03
2019-04-03T01:09:42.555Z,927.96
2019-04-03T01:09:55.520Z,928.02
2019-04-03T01:10:09.937Z,928.03
2019-04-03T01:10:22.994Z,928.02
2019-04-03T01:10:37.241Z,928.1
2019-04-03T01:10:50.441Z,928.06
2019-04-03T01:11:04.948Z,928.01
2019-04-03T01:11:17.558Z,928.03
2019-04-03T01:11:32.217Z,928.04
2019-04-03T01:11:45.470Z,928.03
2019-04-03T01:12:01.405Z,928.04
2019-04-03T01:12:14.535Z,928.01
2019-04-03T01:12:30.333Z,928
2019-04-03T01:12:43.702Z,928.02
2019-04-03T01:12:56.981Z,928
2019-04-03T01:13:12.182Z,927.96
2019-04-03T01:13:25.377Z,927.97
2019-04-03T01:13:41.357Z,927.98
2019-04-03T01:13:54.469Z,927.99
2019-04-03T01:14:09.165Z,927.96
2019-04-03T01:14:22.281Z,927.97
2019-04-03T01:14:36.191Z,927.96
2019-04-03T01:14:49.234Z,928
2019-04-03T01:15:03.326Z,927.97
2019-04-03T01:15:16.365Z,927.98
2019-04-03T01:15:32.242Z,927.99
2019-04-03T01:15:45.504Z,927.98
2019-04-03T01:15:58.495Z,927.98
2019-04-03T01:16:13.057Z,927.94
2019-04-03T01:16:26.363Z,928
2019-04-03T01:16:42.313Z,927.93
2019-04-03T01:16:55.562Z,927.94
2019-04-03T01:17:11.150Z,927.94
2019-04-03T01:17:24.133Z,927.93
2019-04-03T01:17:39.019Z,927.96
2019-04-03T01:17:52.172Z,927.93
2019-04-03T01:18:06.252Z,927.91
2019-04-03T01:18:19.307Z,927.93
2019-04-03T01:18:34.184Z,927.95
2019-04-03T01:18:47.764Z,927.92
2019-04-03T01:19:00.838Z,927.95
2019-04-03T01:19:16.799Z,927.93
2019-04-03T01:19:29.822Z,927.93
2019-04-03T01:19:43.496Z,927.92
2019-04-03T01:19:56.479Z,927.87
2019-04-03T01:20:11.127Z,927.87
2019-04-03T01:20:24.052Z,927.93
2019-04-03T01:20:37.753Z,927.91
2019-04-03T01:20:50.963Z,927.9
2019-04-03T01:21:06.046Z,927.88
2019-04-03T01:21:19.435Z,927.87
2019-04-03T01:21:32.648Z,927.88
2019-04-03T01:21:47.634Z,927.86
2019-04-03T01:22:00.768Z,927.89
2019-04-03T01:22:14.993Z,927.89
2019-04-03T01:22:28.224Z,927.86
2019-04-03T01:22:43.964Z,927.88
2019-04-03T01:22:57.072Z,927.89
2019-04-03T01:23:11.748Z,927.89
2019-04-03T01:23:24.840Z,927.88
2019-04-03T01:23:39.139Z,927.86
2019-04-03T01:23:52.235Z,927.86
2019-04-03T01:24:08.259Z,927.89
2019-04-03T01:24:21.369Z,927.89
2019-04-03T01:24:34.423Z,927.89
2019-04-03T01:24:49.170Z,927.89
2019-04-03T01:25:02.185Z,927.86
2019-04-03T01:25:16.279Z,927.9
2019-04-03T01:25:29.487Z,927.92
2019-04-03T01:25:44.060Z,927.89
2019-04-03T01:25:57.113Z,927.87
2019-04-03T01:26:11.365Z,927.85
2019-04-03T01:26:24.420Z,927.89
2019-04-03T01:26:36.977Z,927.9
2019-04-03T01:26:50.454Z,927.87
2019-04-03T01:27:03.596Z,927.9
2019-04-03T01:27:18.991Z,927.91
2019-04-03T01:27:32.047Z,927.88
2019-04-03T01:27:46.059Z,927.88
2019-04-03T01:27:59.082Z,927.89
2019-04-03T01:28:12.835Z,927.89
2019-04-03T01:28:25.863Z,927.91
2019-04-03T01:28:41.333Z,927.94
2019-04-03T01:28:54.288Z,927.89
2019-04-03T01:29:07.311Z,927.89
2019-04-03T01:29:22.177Z,927.91
2019-04-03T01:29:35.330Z,927.93
2019-04-03T01:29:50.101Z,927.88
2019-04-03T01:30:03.276Z,927.92
2019-04-03T01:30:18.345Z,927.86
2019-04-03T01:30:31.424Z,927.86
2019-04-03T01:30:45.702Z,927.86
2019-04-03T01:30:58.892Z,927.85
2019-04-03T01:31:14.106Z,927.87
2019-04-03T01:31:27.373Z,927.84
2019-04-03T01:31:40.472Z,927.85
2019-04-03T01:31:55.398Z,927.84
2019-04-03T01:32:08.824Z,927.81
2019-04-03T01:32:23.313Z,927.8
2019-04-03T01:32:36.365Z,927.85
2019-04-03T01:32:51.101Z,927.84
2019-04-03T01:33:04.124Z,927.85
2019-04-03T01:33:18.022Z,927.83
2019-04-03T01:33:31.265Z,927.84
2019-04-03T01:33:45.958Z,927.79
2019-04-03T01:33:59.534Z,927.82
2019-04-03T01:34:12.264Z,927.83
2019-04-03T01:34:27.153Z,927.82
2019-04-03T01:34:40.449Z,927.81
2019-04-03T01:34:54.831Z,927.79
2019-04-03T01:35:10.491Z,927.81
2019-04-03T01:35:24.478Z,927.8
2019-04-03T01:35:37.659Z,927.79
2019-04-03T01:35:51.902Z,927.8
2019-04-03T01:36:04.908Z,927.78
2019-04-03T01:36:19.046Z,927.8
2019-04-03T01:36:32.097Z,927.78
2019-04-03T01:36:44.758Z,927.76
2019-04-03T01:36:58.689Z,927.78
2019-04-03T01:37:11.847Z,927.77
2019-04-03T01:37:26.491Z,927.79
2019-04-03T01:37:39.541Z,927.77
2019-04-03T01:37:54.194Z,927.77
2019-04-03T01:38:07.178Z,927.79
2019-04-03T01:38:20.906Z,927.78
2019-04-03T01:38:34.005Z,927.82
2019-04-03T01:38:47.893Z,927.79
2019-04-03T01:39:02.657Z,927.79
2019-04-03T01:39:15.673Z,927.77
2019-04-03T01:39:30.657Z,927.78
2019-04-03T01:39:43.728Z,927.76
2019-04-03T01:39:58.401Z,927.77
2019-04-03T01:40:11.584Z,927.79
2019-04-03T01:40:27.362Z,927.76
2019-04-03T01:40:40.523Z,927.77
2019-04-03T01:40:54.935Z,927.74
2019-04-03T01:41:08.257Z,927.78
2019-04-03T01:41:22.601Z,927.78
2019-04-03T01:41:34.938Z,927.81
2019-04-03T01:41:47.680Z,927.77
2019-04-03T01:42:02.162Z,927.75
2019-04-03T01:42:15.281Z,927.77
2019-04-03T01:42:29.566Z,927.78
2019-04-03T01:42:42.395Z,927.78
2019-04-03T01:42:57.301Z,927.75
2019-04-03T01:43:10.443Z,927.8
2019-04-03T01:43:24.548Z,927.74
2019-04-03T01:43:37.467Z,927.8
2019-04-03T01:43:53.050Z,927.8
2019-04-03T01:44:06.684Z,927.8
2019-04-03T01:44:19.845Z,927.79
2019-04-03T01:44:35.169Z,927.8
2019-04-03T01:44:48.418Z,927.75
2019-04-03T01:45:02.642Z,927.74
2019-04-03T01:45:16.122Z,927.76
2019-04-03T01:45:30.355Z,927.78
2019-04-03T01:45:43.590Z,927.76
2019-04-03T01:45:58.252Z,927.75
2019-04-03T01:46:11.476Z,927.77
2019-04-03T01:46:27.114Z,927.77
2019-04-03T01:46:40.478Z,927.8
2019-04-03T01:46:53.494Z,927.74
2019-04-03T01:47:08.038Z,927.74
2019-04-03T01:47:21.060Z,927.73
2019-04-03T01:47:35.150Z,927.76
2019-04-03T01:47:48.196Z,927.74
2019-04-03T01:48:02.686Z,927.75
2019-04-03T01:48:15.918Z,927.75
2019-04-03T01:48:29.856Z,927.76
2019-04-03T01:48:42.812Z,927.73
2019-04-03T01:48:56.707Z,927.74
2019-04-03T01:49:11.315Z,927.75
2019-04-03T01:49:24.538Z,927.7
2019-04-03T01:49:39.501Z,927.74
2019-04-03T01:49:52.540Z,927.76
2019-04-03T01:50:08.308Z,927.72
2019-04-03T01:50:21.361Z,927.75
2019-04-03T01:50:36.196Z,927.73
2019-04-03T01:50:49.294Z,927.71
2019-04-03T01:51:04.307Z,927.69
2019-04-03T01:51:17.750Z,927.69
2019-04-03T01:51:33.593Z,927.71
2019-04-03T01:51:46.595Z,927.67
2019-04-03T01:52:01.653Z,927.68
2019-04-03T01:52:14.720Z,927.72
2019-04-03T01:52:28.043Z,927.71
2019-04-03T01:52:42.254Z,927.71
2019-04-03T01:52:55.483Z,927.68
2019-04-03T01:53:09.711Z,927.72
2019-04-03T01:53:22.723Z,927.7
2019-04-03T01:53:37.246Z,927.68
2019-04-03T01:53:50.659Z,927.69
2019-04-03T01:54:06.840Z,927.7
2019-04-03T01:54:19.936Z,927.69
2019-04-03T01:54:35.011Z,927.73
2019-04-03T01:54:48.069Z,927.68
2019-04-03T01:55:03.260Z,927.69
2019-04-03T01:55:16.517Z,927.66
2019-04-03T01:55:29.450Z,927.69
2019-04-03T01:55:44.224Z,927.67
2019-04-03T01:55:57.206Z,927.64
2019-04-03T01:56:12.286Z,927.63
2019-04-03T01:56:25.291Z,927.63
2019-04-03T01:56:40.224Z,927.65
2019-04-03T01:56:53.402Z,927.62
2019-04-03T01:57:07.991Z,927.64
2019-04-03T01:57:21.614Z,927.62
2019-04-03T01:57:37.452Z,927.59
2019-04-03T01:57:50.823Z,927.59
2019-04-03T01:58:06.073Z,927.58
2019-04-03T01:58:19.553Z,927.57
2019-04-03T01:58:32.564Z,927.56
2019-04-03T01:58:45.814Z,927.56
2019-04-03T01:58:58.875Z,927.54
2019-04-03T01:59:13.564Z,927.56
2019-04-03T01:59:26.614Z,927.53
2019-04-03T01:59:41.635Z,927.51
2019-04-03T01:59:54.884Z,927.51
2019-04-03T02:00:09.128Z,927.49
2019-04-03T02:00:22.150Z,927.52
2019-04-03T02:00:35.795Z,927.51
2019-04-03T02:00:50.735Z,927.51
2019-04-03T02:01:03.301Z,927.55
2019-04-03T02:01:18.803Z,927.51
2019-04-03T02:01:31.876Z,927.52
2019-04-03T02:01:46.150Z,927.51
2019-04-03T02:01:59.169Z,927.5
2019-04-03T02:02:13.042Z,927.51
2019-04-03T02:02:26.412Z,927.5
2019-04-03T02:02:42.393Z,927.52
2019-04-03T02:02:55.765Z,927.48
2019-04-03T02:03:14.137Z,927.5
2019-04-03T02:03:27.411Z,927.5
2019-04-03T02:03:42.775Z,927.53
2019-04-03T02:03:55.826Z,927.47
2019-04-03T02:04:09.123Z,927.5
2019-04-03T02:04:23.278Z,927.48
2019-04-03T02:04:36.315Z,927.5
2019-04-03T02:04:52.244Z,927.48
2019-04-03T02:05:05.258Z,927.5
2019-04-03T02:05:20.176Z,927.48
2019-04-03T02:05:33.324Z,927.52
2019-04-03T02:05:48.150Z,927.49
2019-04-03T02:06:01.456Z,927.5
2019-04-03T02:06:15.076Z,927.45
2019-04-03T02:06:28.146Z,927.47
2019-04-03T02:06:41.773Z,927.48
2019-04-03T02:06:56.526Z,927.48
2019-04-03T02:07:09.468Z,927.48
2019-04-03T02:07:24.494Z,927.49
2019-04-03T02:07:37.007Z,927.5
2019-04-03T02:07:52.004Z,927.46
2019-04-03T02:08:04.980Z,927.45
2019-04-03T02:08:19.178Z,927.44
2019-04-03T02:08:32.178Z,927.46
2019-04-03T02:08:46.205Z,927.45
2019-04-03T02:08:59.152Z,927.47
2019-04-03T02:09:12.424Z,927.48
2019-04-03T02:09:26.552Z,927.48
2019-04-03T02:09:39.221Z,927.46
2019-04-03T02:09:54.115Z,927.47
2019-04-03T02:10:06.826Z,927.47
2019-04-03T02:10:22.156Z,927.47
2019-04-03T02:10:35.340Z,927.48
2019-04-03T02:10:50.031Z,927.46
2019-04-03T02:11:03.148Z,927.44
2019-04-03T02:11:19.240Z,927.46
2019-04-03T02:11:32.695Z,927.48
2019-04-03T02:11:45.692Z,927.5
2019-04-03T02:11:59.729Z,927.49
2019-04-03T02:12:12.845Z,927.49
2019-04-03T02:12:27.294Z,927.49
2019-04-03T02:12:40.319Z,927.47
2019-04-03T02:12:55.563Z,927.5
2019-04-03T02:13:08.748Z,927.49
2019-04-03T02:13:23.004Z,927.47
2019-04-03T02:13:35.863Z,927.48
2019-04-03T02:13:50.897Z,927.48
2019-04-03T02:14:04.302Z,927.47
2019-04-03T02:14:17.356Z,927.49
2019-04-03T02:14:31.769Z,927.5
2019-04-03T02:14:45.055Z,927.49
2019-04-03T02:14:58.912Z,927.46
2019-04-03T02:15:12.093Z,927.48
2019-04-03T02:15:26.138Z,927.47
2019-04-03T02:15:39.172Z,927.48
2019-04-03T02:15:53.937Z,927.44
2019-04-03T02:16:07.143Z,927.43
2019-04-03T02:16:21.401Z,927.45
2019-04-03T02:16:34.543Z,927.43
2019-04-03T02:16:47.682Z,927.42
2019-04-03T02:17:03.659Z,927.4
2019-04-03T02:17:16.585Z,927.41
2019-04-03T02:17:31.140Z,927.44
2019-04-03T02:17:44.631Z,927.45
2019-04-03T02:17:58.781Z,927.41
2019-04-03T02:18:11.915Z,927.42
2019-04-03T02:18:26.879Z,927.43
2019-04-03T02:18:39.533Z,927.42
2019-04-03T02:18:53.533Z,927.4
2019-04-03T02:19:08.229Z,927.44
2019-04-03T02:19:21.430Z,927.45
2019-04-03T02:19:36.548Z,927.44
2019-04-03T02:19:50.360Z,927.42
2019-04-03T02:20:06.199Z,927.46
2019-04-03T02:20:19.241Z,927.4
2019-04-03T02:20:34.327Z,927.41
2019-04-03T02:20:47.668Z,927.43
2019-04-03T02:21:02.112Z,927.41
2019-04-03T02:21:15.249Z,927.43
2019-04-03T02:21:29.446Z,927.44
2019-04-03T02:21:42.660Z,927.41
2019-04-03T02:21:57.933Z,927.46
2019-04-03T02:22:11.358Z,927.42
2019-04-03T02:22:24.518Z,927.43
2019-04-03T02:22:39.954Z,927.45
2019-04-03T02:22:53.144Z,927.45
2019-04-03T02:23:07.495Z,927.41
2019-04-03T02:23:20.533Z,927.47
2019-04-03T02:23:35.050Z,927.46
2019-04-03T02:23:48.088Z,927.47
2019-04-03T02:24:02.756Z,927.45
2019-04-03T02:24:16.010Z,927.41
2019-04-03T02:24:32.209Z,927.39
2019-04-03T02:24:45.515Z,927.4
2019-04-03T02:24:59.641Z,927.43
2019-04-03T02:25:14.401Z,927.39
2019-04-03T02:25:27.445Z,927.41
2019-04-03T02:25:42.287Z,927.41
2019-04-03T02:25:55.646Z,927.4
2019-04-03T02:26:09.993Z,927.4
2019-04-03T02:26:22.976Z,927.36
2019-04-03T02:26:37.059Z,927.37
2019-04-03T02:26:49.946Z,927.38
2019-04-03T02:27:04.488Z,927.37
2019-04-03T02:27:17.918Z,927.37
2019-04-03T02:27:31.660Z,927.36
2019-04-03T02:27:46.232Z,927.35
2019-04-03T02:27:58.854Z,927.36
2019-04-03T02:28:14.635Z,927.35
2019-04-03T02:28:27.732Z,927.39
2019-04-03T02:28:42.160Z,927.36
2019-04-03T02:28:55.241Z,927.37
2019-04-03T02:29:10.614Z,927.35
2019-04-03T02:29:23.782Z,927.38
2019-04-03T02:29:37.910Z,927.38
2019-04-03T02:29:52.810Z,927.38
2019-04-03T02:30:06.297Z,927.36
2019-04-03T02:30:22.656Z,927.34
2019-04-03T02:30:36.183Z,927.34
2019-04-03T02:30:52.284Z,927.35
2019-04-03T02:31:05.388Z,927.36
2019-04-03T02:31:22.651Z,927.33
2019-04-03T02:31:35.716Z,927.36
2019-04-03T02:31:53.386Z,927.38
2019-04-03T02:32:06.509Z,927.31
2019-04-03T02:32:23.069Z,927.34
2019-04-03T02:32:36.777Z,927.39
2019-04-03T02:32:49.811Z,927.36
2019-04-03T02:33:06.285Z,927.34
2019-04-03T02:33:19.340Z,927.36
2019-04-03T02:33:36.120Z,927.36
2019-04-03T02:33:49.785Z,927.4
2019-04-03T02:34:05.730Z,927.34
2019-04-03T02:34:19.149Z,927.38
2019-04-03T02:34:36.759Z,927.37
2019-04-03T02:34:50.689Z,927.34
2019-04-03T02:35:08.455Z,927.36
2019-04-03T02:35:21.641Z,927.37
2019-04-03T02:35:38.728Z,927.34
2019-04-03T02:35:52.909Z,927.37
2019-04-03T02:36:05.933Z,927.37
2019-04-03T02:36:22.687Z,927.36
2019-04-03T02:36:36.089Z,927.37
2019-04-03T02:36:52.211Z,927.35
2019-04-03T02:37:06.552Z,927.37
2019-04-03T02:37:24.035Z,927.34
2019-04-03T02:37:38.357Z,927.37
2019-04-03T02:37:55.950Z,927.33
2019-04-03T02:38:09.689Z,927.34
2019-04-03T02:38:25.532Z,927.35
2019-04-03T02:38:39.292Z,927.33
2019-04-03T02:38:55.513Z,927.33
2019-04-03T02:39:09.379Z,927.34
2019-04-03T02:39:27.709Z,927.31
2019-04-03T02:39:41.221Z,927.33
2019-04-03T02:39:58.943Z,927.3
2019-04-03T02:40:12.608Z,927.31
2019-04-03T02:40:26.438Z,927.29
2019-04-03T02:40:43.365Z,927.29
2019-04-03T02:40:56.723Z,927.29
2019-04-03T02:41:11.868Z,927.28
2019-04-03T02:41:25.076Z,927.29
2019-04-03T02:41:41.009Z,927.29
2019-04-03T02:41:54.369Z,927.26
2019-04-03T02:42:12.277Z,927.26
2019-04-03T02:42:25.265Z,927.26
2019-04-03T02:42:42.408Z,927.26
2019-04-03T02:42:55.775Z,927.27
2019-04-03T02:43:09.254Z,927.26
2019-04-03T02:43:25.296Z,927.27
2019-04-03T02:43:38.247Z,927.28
2019-04-03T02:43:53.632Z,927.24
2019-04-03T02:44:06.872Z,927.23
2019-04-03T02:44:22.656Z,927.29
2019-04-03T02:44:36.344Z,927.29
2019-04-03T02:44:52.686Z,927.25
2019-04-03T02:45:06.377Z,927.21
2019-04-03T02:45:24.502Z,927.25
2019-04-03T02:45:38.459Z,927.25
2019-04-03T02:45:51.838Z,927.23
2019-04-03T02:46:07.563Z,927.25
2019-04-03T02:46:21.007Z,927.24
2019-04-03T02:46:37.983Z,927.23
2019-04-03T02:46:51.218Z,927.26
2019-04-03T02:47:08.463Z,927.26
2019-04-03T02:47:21.859Z,927.24
2019-04-03T02:47:38.645Z,927.25
2019-04-03T02:47:51.217Z,927.24
2019-04-03T02:48:07.283Z,927.24
2019-04-03T02:48:21.057Z,927.27
2019-04-03T02:48:38.955Z,927.23
2019-04-03T02:48:52.434Z,927.22
2019-04-03T02:49:09.009Z,927.21
2019-04-03T02:49:23.095Z,927.21
2019-04-03T02:49:36.321Z,927.22
2019-04-03T02:49:52.458Z,927.22
2019-04-03T02:50:06.278Z,927.19
2019-04-03T02:50:22.203Z,927.2
2019-04-03T02:50:35.766Z,927.21
2019-04-03T02:50:51.984Z,927.19
2019-04-03T02:51:06.242Z,927.22
2019-04-03T02:51:23.391Z,927.19
2019-04-03T02:51:36.446Z,927.25
2019-04-03T02:51:53.801Z,927.21
2019-04-03T02:52:06.626Z,927.2
2019-04-03T02:52:19.851Z,927.21
2019-04-03T02:52:35.539Z,927.22
2019-04-03T02:52:48.633Z,927.22
2019-04-03T02:53:05.936Z,927.24
2019-04-03T02:53:19.121Z,927.22
2019-04-03T02:53:34.900Z,927.23
2019-04-03T02:53:48.704Z,927.24
2019-04-03T02:54:06.403Z,927.24
2019-04-03T02:54:20.025Z,927.21
2019-04-03T02:54:37.026Z,927.22
2019-04-03T02:54:50.433Z,927.21
2019-04-03T02:55:08.466Z,927.22
2019-04-03T02:55:22.151Z,927.23